createdAt,value
2022-12-25T00:02:54.531Z,54.20
2022-12-25T00:12:56.106Z,56.53
2022-12-25T00:22:57.614Z,54.33
2022-12-25T00:32:59.145Z,52.42
2022-12-25T00:43:00.777Z,52.53
2022-12-25T00:53:02.352Z,52.80
2022-12-25T01:03:04.062Z,50.13
2022-12-25T01:13:05.665Z,48.87
2022-12-25T01:23:07.364Z,50.22
2022-12-25T01:33:08.883Z,53.07
2022-12-25T01:43:26.515Z,52.07
2022-12-25T01:53:28.483Z,50.63
2022-12-25T02:03:30.078Z,53.17
2022-12-25T02:13:31.805Z,52.15
2022-12-25T02:23:59.490Z,52.63
2022-12-25T02:34:34.121Z,50.87
2022-12-25T02:44:37.580Z,51.07
2022-12-25T02:54:44.946Z,53.03
2022-12-25T03:04:48.828Z,49.10
2022-12-25T03:14:50.540Z,51.37
2022-12-25T03:24:52.112Z,53.03
2022-12-25T03:35:01.019Z,51.97
2022-12-25T03:45:02.519Z,51.10
2022-12-25T03:55:08.978Z,50.38
2022-12-25T04:05:10.527Z,49.50
2022-12-25T04:15:12.075Z,53.90
2022-12-25T04:25:13.744Z,50.20
2022-12-25T04:35:15.482Z,47.60
2022-12-25T04:45:17.386Z,46.40
2022-12-25T04:55:18.946Z,45.17
2022-12-25T05:05:20.514Z,45.37
2022-12-25T05:15:22.080Z,43.87
2022-12-25T05:25:23.674Z,43.67
2022-12-25T05:35:25.522Z,44.97
2022-12-25T05:45:27.043Z,41.93
2022-12-25T05:55:28.678Z,44.07
2022-12-25T06:05:30.509Z,43.13
2022-12-25T06:15:32.378Z,43.90
2022-12-25T06:25:33.943Z,45.25
2022-12-25T06:35:39.346Z,44.03
2022-12-25T06:45:41.143Z,42.70
2022-12-25T06:55:43.904Z,42.20
2022-12-25T07:05:45.455Z,43.93
2022-12-25T07:15:46.996Z,46.10
2022-12-25T07:25:59.022Z,48.23
2022-12-25T07:36:00.824Z,46.33
2022-12-25T07:46:02.623Z,49.87
2022-12-25T07:56:11.755Z,51.47
2022-12-25T08:06:13.305Z,47.45
2022-12-25T08:16:14.910Z,45.77
2022-12-25T08:26:20.619Z,47.10
2022-12-25T08:36:22.617Z,44.43
2022-12-25T08:46:24.648Z,46.73
2022-12-25T08:56:26.473Z,43.35
2022-12-25T09:06:28.039Z,46.73
2022-12-25T09:16:29.703Z,42.27
2022-12-25T09:26:31.261Z,41.40
2022-12-25T09:36:32.804Z,40.77
2022-12-25T09:47:09.289Z,39.40
2022-12-25T09:57:13.157Z,40.97
2022-12-25T10:07:26.497Z,37.60
2022-12-25T10:17:44.852Z,39.40
2022-12-25T10:27:51.597Z,40.33
2022-12-25T10:37:59.152Z,36.88
2022-12-25T10:48:07.377Z,33.20
2022-12-25T10:58:19.466Z,35.90
2022-12-25T11:08:27.339Z,37.10
2022-12-25T11:18:45.155Z,36.67
2022-12-25T11:28:50.184Z,36.80
2022-12-25T11:38:51.810Z,36.17
2022-12-25T11:49:01.491Z,34.43
2022-12-25T11:59:12.469Z,35.07
2022-12-25T12:09:48.966Z,33.43
2022-12-25T12:19:50.548Z,33.85
2022-12-25T12:29:55.592Z,36.03
2022-12-25T12:39:57.790Z,35.90
2022-12-25T12:50:01.063Z,35.37
2022-12-25T13:00:10.132Z,32.50
2022-12-25T13:10:18.267Z,33.33
2022-12-25T13:20:33.380Z,32.60
2022-12-25T13:30:35.570Z,31.10
2022-12-25T13:40:37.544Z,32.47
2022-12-25T13:50:39.295Z,31.97
2022-12-25T14:00:50.965Z,30.42
2022-12-25T14:10:53.965Z,31.10
2022-12-25T14:20:58.553Z,30.27
2022-12-25T14:31:03.848Z,30.00
2022-12-25T14:41:26.010Z,30.77
2022-12-25T14:51:29.015Z,29.50
2022-12-25T15:01:33.253Z,32.30
2022-12-25T15:11:34.938Z,29.60
2022-12-25T15:21:37.364Z,32.23
2022-12-25T15:31:39.569Z,32.80
2022-12-25T15:41:41.344Z,30.23
2022-12-25T15:51:44.014Z,29.93
2022-12-25T16:01:56.751Z,28.27
2022-12-25T16:11:58.422Z,30.17
2022-12-25T16:21:59.987Z,29.00
2022-12-25T16:32:01.701Z,28.35
2022-12-25T16:42:03.273Z,25.23
2022-12-25T16:52:04.990Z,25.13
2022-12-25T17:02:06.826Z,24.57
2022-12-25T17:12:09.147Z,24.90
2022-12-25T17:22:10.698Z,25.67
2022-12-25T17:32:12.276Z,28.33
2022-12-25T17:42:13.812Z,28.60
2022-12-25T17:52:15.366Z,28.70
2022-12-25T18:02:16.988Z,29.87
2022-12-25T18:12:18.617Z,30.65
2022-12-25T18:22:20.265Z,31.43
2022-12-25T18:32:26.378Z,31.43
2022-12-25T18:42:29.627Z,31.67
2022-12-25T18:52:47.755Z,31.20
2022-12-25T19:02:57.308Z,31.95
2022-12-25T19:12:59.088Z,32.03
2022-12-25T19:23:00.614Z,33.80
2022-12-25T19:33:02.163Z,34.70
2022-12-25T19:43:03.764Z,33.40
2022-12-25T19:53:05.308Z,34.13
2022-12-25T20:03:07.015Z,35.20
2022-12-25T20:13:08.607Z,34.87
2022-12-25T20:23:10.796Z,34.20
2022-12-25T20:33:12.348Z,36.60
2022-12-25T20:43:13.895Z,34.58
2022-12-25T20:53:15.911Z,34.20
2022-12-25T21:03:17.631Z,33.83
2022-12-25T21:13:20.689Z,35.33
2022-12-25T21:23:22.518Z,35.83
2022-12-25T21:33:24.065Z,36.08
2022-12-25T21:43:25.591Z,34.63
2022-12-25T21:53:27.159Z,36.60
2022-12-25T22:03:28.734Z,34.13
2022-12-25T22:13:30.515Z,35.90
2022-12-25T22:23:32.130Z,34.45
2022-12-25T22:33:33.707Z,33.63
2022-12-25T22:44:14.630Z,31.67
2022-12-25T22:54:03.404Z,29.37
2022-12-25T23:04:06.283Z,30.43
2022-12-25T23:14:07.988Z,31.40
2022-12-25T23:24:09.882Z,32.07
2022-12-25T23:34:11.491Z,31.00
2022-12-25T23:44:13.910Z,31.13
2022-12-25T23:54:17.936Z,30.87
